logo
Search for airport 
image banner adimage banner adimage banner ad
image banner ad

EPMI - Miroslawiec

Located in , Poland

ICAO - EPMI, IATA -

Data provided by Airmate  

General information

Coordinates: N53°23'42" E16°4'58"
Elevation is 495 feet MSL.
Magnetic variation is 5.0000° East
View others Airports in West Pomerania

Operational data

Special qualification required
Current time UTC:
Current local time:
Weather
TAF: TAF EPMI 250500Z 2506/2518 10010KT CAVOK
View NOTAMs / SUP AIP / TFR affecting this airport [VIEW]
Communications frequencies: [VIEW]

Runways:

RWY identifierQFULength (ft)Width (ft)SurfaceLDA (ft)
12125°8202148CONC+ASPH8202
30305°8202148CONC+ASPH8202

Airport contact information

Address: Poland

Satellite view of EPMI